Time;durP1;ratioP1;P1;durP2;ratioP2;P2;SDS_P1;SDS_P2;PMS_P1;PMS_P2;Temp;Humidity;BMP_temperature;BMP_pressure;BME280_temperature;BME280_humidity;BME280_pressure;Samples;Min_cycle;Max_cycle;Signal;HPM_P1;HPM_P2
2021/12/19 00:01:54;;;;;;;20.00;16.02;;;10.00;99.90;;;;;;5010732;28;20034;-70
2021/12/19 00:09:45;;;;;;;22.40;15.90;;;9.90;99.90;;;;;;4982653;28;20625;-69
2021/12/19 00:12:10;;;;;;;20.08;16.10;;;9.90;99.90;;;;;;5004967;28;20034;-70
2021/12/19 00:14:37;;;;;;;20.35;16.23;;;9.90;99.90;;;;;;4996508;28;20030;-70
2021/12/19 00:17:03;;;;;;;21.80;17.20;;;9.90;99.90;;;;;;5010492;28;20029;-70
2021/12/19 00:19:29;;;;;;;20.98;16.77;;;9.90;99.90;;;;;;5005912;28;20118;-70
2021/12/19 00:21:55;;;;;;;22.10;17.27;;;10.00;99.90;;;;;;4994821;28;20477;-70
2021/12/19 00:24:24;;;;;;;22.02;17.30;;;9.90;99.90;;;;;;4991262;28;20038;-71
2021/12/19 00:26:50;;;;;;;25.48;18.02;;;9.90;99.90;;;;;;4985752;28;20146;-71
2021/12/19 00:29:16;;;;;;;24.05;18.25;;;9.90;99.90;;;;;;4993214;28;20373;-71
2021/12/19 00:31:45;;;;;;;23.50;19.17;;;9.80;99.90;;;;;;5020366;28;20034;-71
2021/12/19 00:34:13;;;;;;;24.30;19.15;;;9.70;99.90;;;;;;4988493;28;20054;-68
2021/12/19 00:36:40;;;;;;;23.13;19.10;;;9.60;99.90;;;;;;5018040;28;20062;-69
2021/12/19 00:39:06;;;;;;;24.23;18.95;;;9.60;99.90;;;;;;4991714;28;20054;-70
2021/12/19 00:41:32;;;;;;;24.00;19.80;;;9.50;99.90;;;;;;4977382;28;20046;-70
2021/12/19 00:44:09;;;;;;;24.50;19.38;;;9.50;99.90;;;;;;4999638;28;20045;-71
2021/12/19 00:46:45;;;;;;;24.42;19.45;;;9.50;99.90;;;;;;4997820;28;20065;-71
2021/12/19 00:49:12;;;;;;;27.08;19.90;;;9.50;99.90;;;;;;4980907;28;20381;-71
2021/12/19 00:51:38;;;;;;;23.67;19.38;;;9.50;99.90;;;;;;4993903;28;20428;-69
2021/12/19 00:54:09;;;;;;;24.75;19.50;;;9.40;99.90;;;;;;4981064;28;20120;-70
2021/12/19 00:56:39;;;;;;;25.55;19.80;;;9.40;99.90;;;;;;5001670;28;20042;-69
2021/12/19 00:59:06;;;;;;;25.48;20.73;;;9.50;99.90;;;;;;5009614;28;20037;-72
2021/12/19 01:01:33;;;;;;;25.45;20.50;;;9.60;99.90;;;;;;4985387;28;20033;-71
2021/12/19 01:04:00;;;;;;;26.88;21.08;;;9.60;99.90;;;;;;4994782;28;20509;-70
2021/12/19 01:06:28;;;;;;;25.38;20.55;;;9.60;99.90;;;;;;5010349;28;20029;-71
2021/12/19 01:08:54;;;;;;;27.13;21.63;;;9.60;99.90;;;;;;5010484;28;20049;-71
2021/12/19 01:11:20;;;;;;;26.92;20.73;;;9.60;99.90;;;;;;4992986;28;20121;-71
2021/12/19 01:13:47;;;;;;;24.85;21.60;;;9.50;99.90;;;;;;5009182;28;20038;-70
2021/12/19 01:16:15;;;;;;;23.30;19.27;;;9.60;99.90;;;;;;5009207;28;20030;-70
2021/12/19 01:18:42;;;;;;;28.42;20.13;;;9.60;99.90;;;;;;5013306;28;20026;-71
2021/12/19 01:21:08;;;;;;;24.38;20.65;;;9.60;99.90;;;;;;5002768;28;20116;-70
2021/12/19 01:23:37;;;;;;;24.00;19.70;;;9.60;99.90;;;;;;5012062;28;20034;-70
2021/12/19 01:26:03;;;;;;;24.55;18.90;;;9.60;99.90;;;;;;5010002;28;20088;-70
2021/12/19 01:28:29;;;;;;;27.92;21.10;;;9.60;99.90;;;;;;5009025;28;20189;-71
2021/12/19 01:30:55;;;;;;;24.80;20.13;;;9.50;99.90;;;;;;5008077;28;20148;-69
2021/12/19 01:33:21;;;;;;;24.63;20.20;;;9.50;99.90;;;;;;5004133;28;20141;-70
2021/12/19 01:35:47;;;;;;;22.88;18.30;;;9.50;99.90;;;;;;5006127;28;20167;-70
2021/12/19 01:38:14;;;;;;;23.05;18.30;;;9.50;99.90;;;;;;5009319;28;20782;-70
2021/12/19 01:40:40;;;;;;;24.58;19.23;;;9.50;99.90;;;;;;5006393;28;20046;-72
2021/12/19 01:43:07;;;;;;;23.45;17.98;;;9.50;99.90;;;;;;4988737;28;20519;-71
2021/12/19 01:45:39;;;;;;;23.80;18.23;;;9.50;99.90;;;;;;4999051;28;20108;-71
2021/12/19 01:48:09;;;;;;;24.20;18.80;;;9.50;99.90;;;;;;4995100;28;20038;-71
2021/12/19 01:50:37;;;;;;;21.65;18.30;;;9.50;99.90;;;;;;5002807;28;20158;-70
2021/12/19 01:53:06;;;;;;;24.55;19.45;;;9.50;99.90;;;;;;5007363;28;20046;-71
2021/12/19 01:55:33;;;;;;;22.52;18.98;;;9.50;99.90;;;;;;4976556;28;20049;-70
2021/12/19 01:58:00;;;;;;;26.92;20.60;;;9.40;99.90;;;;;;5003990;28;20053;-70
2021/12/19 02:00:30;;;;;;;25.23;18.33;;;9.30;99.90;;;;;;4984643;28;20628;-70
2021/12/19 02:02:57;;;;;;;26.48;19.52;;;9.20;99.90;;;;;;4986396;28;20045;-71
2021/12/19 02:05:25;;;;;;;28.60;19.77;;;9.10;99.90;;;;;;4989333;28;20042;-70
2021/12/19 02:07:53;;;;;;;26.80;21.02;;;9.00;99.90;;;;;;4993412;28;20505;-70
2021/12/19 02:10:22;;;;;;;25.23;19.65;;;9.10;99.90;;;;;;5003780;28;20120;-71
2021/12/19 02:12:50;;;;;;;26.27;20.58;;;9.10;99.90;;;;;;4989058;28;20390;-70
2021/12/19 02:15:20;;;;;;;22.95;19.08;;;9.10;99.90;;;;;;5007697;28;20063;-70
2021/12/19 02:17:49;;;;;;;25.33;20.15;;;9.00;99.90;;;;;;5011365;28;20026;-70
2021/12/19 02:20:16;;;;;;;22.17;18.27;;;9.00;99.90;;;;;;5006836;28;20038;-69
2021/12/19 02:22:43;;;;;;;21.80;17.80;;;8.90;99.90;;;;;;5004053;28;20048;-70
2021/12/19 02:25:09;;;;;;;23.02;19.27;;;8.90;99.90;;;;;;4998830;28;20037;-69
2021/12/19 02:27:36;;;;;;;24.02;17.90;;;8.90;99.90;;;;;;5003576;28;20122;-71
2021/12/19 02:30:06;;;;;;;20.48;17.05;;;8.90;99.90;;;;;;4993627;28;20132;-70
2021/12/19 02:32:34;;;;;;;25.20;18.10;;;8.90;99.90;;;;;;5011764;28;20402;-70
2021/12/19 02:35:04;;;;;;;25.27;18.88;;;8.90;99.90;;;;;;5007329;28;20143;-70
2021/12/19 02:48:28;;;;;;;22.63;17.80;;;8.80;99.90;;;;;;4984999;28;20037;-69
2021/12/19 02:50:55;;;;;;;24.00;17.55;;;8.80;99.90;;;;;;4998469;28;20049;-70
2021/12/19 02:53:37;;;;;;;22.25;17.65;;;8.80;99.90;;;;;;4981283;28;20130;-69
2021/12/19 02:56:07;;;;;;;22.67;17.25;;;8.70;99.90;;;;;;5005737;28;20115;-70
2021/12/19 02:58:34;;;;;;;22.52;17.60;;;8.80;99.90;;;;;;5011224;28;20361;-70
2021/12/19 03:01:06;;;;;;;22.13;17.40;;;8.70;99.90;;;;;;4990323;28;20161;-70
2021/12/19 03:03:32;;;;;;;21.38;17.50;;;8.70;99.90;;;;;;4989482;28;20035;-70
2021/12/19 03:05:58;;;;;;;24.60;19.48;;;8.60;99.90;;;;;;5005862;28;20041;-71
2021/12/19 03:08:24;;;;;;;24.20;19.85;;;8.60;99.90;;;;;;5001569;28;20033;-71
2021/12/19 03:18:39;;;;;;;35.20;26.33;;;8.50;99.90;;;;;;5002135;28;20366;-70
2021/12/19 03:21:06;;;;;;;38.17;27.02;;;8.40;99.90;;;;;;4999305;28;20100;-71
2021/12/19 03:23:33;;;;;;;39.97;28.58;;;8.50;99.90;;;;;;4998873;28;20816;-70
2021/12/19 03:25:59;;;;;;;40.55;30.23;;;8.40;99.90;;;;;;5010877;28;20033;-71
2021/12/19 03:28:26;;;;;;;38.45;28.50;;;8.50;99.90;;;;;;5010162;28;20031;-70
2021/12/19 03:30:52;;;;;;;39.53;28.90;;;8.40;99.90;;;;;;5000071;28;20509;-70
2021/12/19 03:33:20;;;;;;;38.15;28.30;;;8.40;99.90;;;;;;5002285;28;20037;-72
2021/12/19 03:35:46;;;;;;;39.45;30.17;;;8.40;99.90;;;;;;5005374;28;20089;-69
2021/12/19 03:38:15;;;;;;;40.67;30.63;;;8.40;99.90;;;;;;5009579;28;20141;-71
2021/12/19 03:40:44;;;;;;;43.70;30.17;;;8.40;99.90;;;;;;5005019;28;20057;-70
2021/12/19 03:43:16;;;;;;;39.40;29.95;;;8.30;99.90;;;;;;5005106;28;20040;-70
2021/12/19 03:45:44;;;;;;;41.60;29.05;;;8.30;99.90;;;;;;5005547;28;20034;-70
2021/12/19 03:48:13;;;;;;;36.50;28.35;;;8.30;99.90;;;;;;5006124;28;20038;-71
2021/12/19 03:50:44;;;;;;;35.17;27.20;;;8.30;99.90;;;;;;5008503;28;20444;-70
2021/12/19 03:53:11;;;;;;;37.45;28.70;;;8.30;99.90;;;;;;5003383;28;20213;-70
2021/12/19 03:55:39;;;;;;;37.15;27.58;;;8.20;99.90;;;;;;5007676;28;20057;-71
2021/12/19 03:58:05;;;;;;;40.88;28.13;;;8.10;99.90;;;;;;5016529;28;20042;-70
2021/12/19 04:00:33;;;;;;;40.45;29.70;;;8.20;99.90;;;;;;5012020;28;20052;-70
2021/12/19 04:03:04;;;;;;;41.67;27.73;;;8.20;99.90;;;;;;5010265;28;20045;-71
2021/12/19 04:05:31;;;;;;;34.97;25.55;;;8.10;99.90;;;;;;4988234;28;20053;-70
2021/12/19 04:07:58;;;;;;;35.92;27.80;;;8.10;99.90;;;;;;4982287;28;20051;-70
2021/12/19 04:10:27;;;;;;;38.65;27.67;;;8.10;99.90;;;;;;4990140;28;20057;-70
2021/12/19 04:12:55;;;;;;;33.60;23.63;;;8.10;99.90;;;;;;4988364;28;20057;-69
2021/12/19 04:15:21;;;;;;;30.42;23.23;;;8.10;99.90;;;;;;4992736;28;20034;-70
2021/12/19 04:17:46;;;;;;;30.85;23.00;;;8.00;99.90;;;;;;4995051;28;20034;-70
2021/12/19 04:20:15;;;;;;;31.63;23.35;;;8.00;99.90;;;;;;5005618;28;20490;-70
2021/12/19 04:22:43;;;;;;;32.88;23.27;;;8.00;99.90;;;;;;4993107;28;20038;-70
2021/12/19 04:25:10;;;;;;;32.15;23.75;;;8.10;99.90;;;;;;4997696;28;20038;-71
2021/12/19 04:27:37;;;;;;;33.90;24.23;;;8.10;99.90;;;;;;4995721;28;20166;-70
2021/12/19 04:30:05;;;;;;;34.67;23.67;;;8.20;99.90;;;;;;4993867;28;20433;-70
2021/12/19 04:32:36;;;;;;;34.97;24.45;;;8.20;99.90;;;;;;5011713;28;20053;-70
2021/12/19 04:35:04;;;;;;;32.85;25.48;;;8.20;99.90;;;;;;5012755;28;20068;-71
2021/12/19 04:40:12;;;;;;;35.38;25.77;;;8.20;99.90;;;;;;4996579;28;20443;-71
2021/12/19 04:51:08;;;;;;;33.25;25.13;;;8.20;99.90;;;;;;4990610;28;20654;-70
2021/12/19 05:15:26;;;;;;;34.17;25.15;;;7.90;99.90;;;;;;5007959;28;20041;-71
2021/12/19 05:17:56;;;;;;;35.90;25.08;;;7.90;99.90;;;;;;5011153;28;20048;-70
2021/12/19 05:20:26;;;;;;;35.05;26.23;;;7.90;99.90;;;;;;5010440;28;20042;-70
2021/12/19 05:22:57;;;;;;;35.92;25.42;;;7.90;99.90;;;;;;5007112;28;20040;-70
2021/12/19 05:25:23;;;;;;;34.47;25.27;;;8.00;99.90;;;;;;4996120;28;20053;-70
2021/12/19 05:27:52;;;;;;;33.65;23.60;;;8.00;99.90;;;;;;5005141;28;20026;-70
2021/12/19 05:30:19;;;;;;;34.78;25.67;;;8.00;99.90;;;;;;5003053;28;20034;-69
2021/12/19 05:32:47;;;;;;;34.35;25.30;;;8.10;99.90;;;;;;4988656;28;20580;-69
2021/12/19 05:35:22;;;;;;;32.10;25.05;;;8.00;99.90;;;;;;5005927;28;20041;-69
2021/12/19 05:46:03;;;;;;;34.38;24.05;;;8.00;99.90;;;;;;5009294;28;20505;-70
2021/12/19 05:48:29;;;;;;;30.40;22.35;;;7.90;99.90;;;;;;4991353;28;20037;-69
2021/12/19 05:50:55;;;;;;;31.33;22.33;;;8.00;99.90;;;;;;4999418;28;20034;-70
2021/12/19 05:53:22;;;;;;;33.67;24.48;;;8.00;99.90;;;;;;5007334;28;20111;-70
2021/12/19 05:55:48;;;;;;;35.70;24.65;;;8.00;99.90;;;;;;5004323;28;20049;-70
2021/12/19 05:58:14;;;;;;;32.53;24.73;;;7.90;99.90;;;;;;5011064;28;20430;-70
2021/12/19 06:00:40;;;;;;;35.13;25.73;;;8.00;99.90;;;;;;5004640;28;20046;-69
2021/12/19 06:03:07;;;;;;;34.65;24.92;;;7.90;99.90;;;;;;4994581;28;20041;-69
2021/12/19 06:05:34;;;;;;;35.40;25.92;;;8.00;99.90;;;;;;5003412;28;20477;-69
2021/12/19 06:08:00;;;;;;;36.05;26.10;;;7.90;99.90;;;;;;5008347;28;20046;-70
2021/12/19 06:10:28;;;;;;;35.17;25.35;;;7.90;99.90;;;;;;5008107;28;20037;-70
2021/12/19 06:12:57;;;;;;;37.58;25.83;;;8.00;99.90;;;;;;5002882;28;20038;-69
2021/12/19 06:15:23;;;;;;;32.42;24.00;;;7.90;99.90;;;;;;5005255;28;20147;-70
2021/12/19 06:17:50;;;;;;;31.13;23.80;;;8.00;99.90;;;;;;4977963;28;20625;-70
2021/12/19 06:20:16;;;;;;;33.45;25.13;;;8.00;99.90;;;;;;5002334;28;20492;-70
2021/12/19 06:22:42;;;;;;;36.45;25.80;;;7.90;99.90;;;;;;5012278;28;20350;-70
2021/12/19 06:25:09;;;;;;;32.20;23.60;;;7.90;99.90;;;;;;5012467;28;20130;-69
2021/12/19 06:27:35;;;;;;;34.20;24.98;;;8.00;99.90;;;;;;4994290;28;20037;-69
2021/12/19 06:30:02;;;;;;;28.10;21.42;;;8.00;99.90;;;;;;5006324;28;20038;-69
2021/12/19 06:32:29;;;;;;;35.20;24.73;;;8.00;99.90;;;;;;4993646;28;20570;-70
2021/12/19 06:34:55;;;;;;;29.67;22.50;;;8.10;99.90;;;;;;5005159;28;20042;-70
2021/12/19 06:37:21;;;;;;;31.35;22.98;;;8.00;99.90;;;;;;5005083;28;20050;-69
2021/12/19 06:39:47;;;;;;;30.67;22.55;;;8.10;99.90;;;;;;5007890;28;20033;-70
2021/12/19 06:42:13;;;;;;;29.50;20.77;;;8.00;99.90;;;;;;5006511;28;20382;-70
2021/12/19 06:44:38;;;;;;;28.83;20.70;;;8.10;99.90;;;;;;4993993;28;20076;-70
2021/12/19 06:47:05;;;;;;;29.25;21.92;;;8.10;99.90;;;;;;5005352;28;20490;-70
2021/12/19 06:49:31;;;;;;;28.75;20.85;;;8.10;99.90;;;;;;5006332;28;20060;-70
2021/12/19 06:51:58;;;;;;;30.70;22.00;;;8.10;99.90;;;;;;5013469;28;20048;-70
2021/12/19 06:54:24;;;;;;;28.98;22.45;;;8.00;99.90;;;;;;5006401;28;20095;-71
2021/12/19 06:56:50;;;;;;;28.05;20.90;;;8.00;99.90;;;;;;5003448;28;20081;-69
2021/12/19 06:59:15;;;;;;;28.58;20.17;;;8.00;99.90;;;;;;5005968;28;20140;-70
2021/12/19 07:01:42;;;;;;;27.23;20.65;;;8.00;99.90;;;;;;5005176;28;20140;-70
2021/12/19 07:04:08;;;;;;;29.35;21.65;;;8.00;99.90;;;;;;5014923;28;20041;-70
2021/12/19 07:06:34;;;;;;;29.08;21.48;;;8.00;99.90;;;;;;4998839;28;20545;-69
2021/12/19 07:09:01;;;;;;;28.08;20.95;;;8.00;99.90;;;;;;5001410;28;20061;-70
2021/12/19 07:11:26;;;;;;;25.80;19.90;;;8.00;99.90;;;;;;4984478;28;20063;-70
2021/12/19 07:13:53;;;;;;;27.33;19.60;;;8.10;99.90;;;;;;4979708;28;20080;-71
2021/12/19 07:16:19;;;;;;;28.83;21.23;;;8.10;99.90;;;;;;4990591;28;20037;-71
2021/12/19 07:18:46;;;;;;;29.80;21.65;;;8.10;99.90;;;;;;5011246;28;20338;-70
2021/12/19 07:21:14;;;;;;;28.40;21.50;;;8.10;99.90;;;;;;5015387;28;20396;-70
2021/12/19 07:23:40;;;;;;;29.60;21.05;;;8.20;99.90;;;;;;4997504;28;20061;-70
2021/12/19 07:26:06;;;;;;;27.70;20.85;;;8.20;99.90;;;;;;5007077;28;20041;-71
2021/12/19 07:28:32;;;;;;;27.52;21.02;;;8.10;99.90;;;;;;5002215;28;20039;-69
2021/12/19 07:30:58;;;;;;;29.25;21.38;;;8.10;99.90;;;;;;5002725;28;20037;-71
2021/12/19 07:33:25;;;;;;;26.13;19.65;;;8.20;99.90;;;;;;5011283;28;20030;-70
2021/12/19 07:35:52;;;;;;;27.85;21.13;;;8.20;99.90;;;;;;5005546;28;20548;-71
2021/12/19 07:38:34;;;;;;;27.45;20.27;;;8.20;99.90;;;;;;4998830;28;20559;-70
2021/12/19 07:41:02;;;;;;;26.25;20.27;;;8.20;99.90;;;;;;4997662;28;20083;-70
2021/12/19 07:43:29;;;;;;;25.73;19.55;;;8.20;99.90;;;;;;5008498;28;20030;-71
2021/12/19 07:45:56;;;;;;;28.42;20.88;;;8.30;99.90;;;;;;5007757;28;20081;-70
2021/12/19 07:48:23;;;;;;;29.50;20.98;;;8.30;99.90;;;;;;5011253;28;20033;-71
2021/12/19 07:50:49;;;;;;;30.58;21.88;;;8.40;99.90;;;;;;4997986;28;20390;-71
2021/12/19 07:53:15;;;;;;;27.65;20.60;;;8.40;99.90;;;;;;5004998;28;20038;-69
2021/12/19 07:55:43;;;;;;;26.00;20.25;;;8.40;99.90;;;;;;5012548;28;20037;-70
2021/12/19 07:58:10;;;;;;;26.30;20.60;;;8.50;99.90;;;;;;4996468;28;20038;-70
2021/12/19 08:00:36;;;;;;;28.50;20.63;;;8.50;99.90;;;;;;4975835;28;20110;-71
2021/12/19 08:03:02;;;;;;;28.63;21.70;;;8.60;99.90;;;;;;4973838;28;20035;-71
2021/12/19 08:05:28;;;;;;;27.75;20.83;;;8.70;99.90;;;;;;5007224;28;20556;-72
2021/12/19 08:07:59;;;;;;;28.85;20.80;;;8.70;99.90;;;;;;5003130;28;20053;-70
2021/12/19 08:13:13;;;;;;;29.70;23.67;;;9.00;99.90;;;;;;4965461;28;20060;-71
2021/12/19 08:15:39;;;;;;;28.55;20.17;;;10.20;99.90;;;;;;4996266;28;20052;-70
2021/12/19 08:18:07;;;;;;;25.38;19.55;;;10.90;99.90;;;;;;4996567;28;20480;-70
2021/12/19 08:20:35;;;;;;;24.20;20.50;;;11.60;99.90;;;;;;5001036;28;20046;-70
2021/12/19 08:23:01;;;;;;;26.75;19.95;;;12.70;99.90;;;;;;5013117;28;20496;-72
2021/12/19 08:25:28;;;;;;;23.67;17.83;;;13.60;99.90;;;;;;5000716;28;20045;-70
2021/12/19 08:27:55;;;;;;;22.30;15.90;;;14.20;99.90;;;;;;4985566;28;20165;-71
2021/12/19 08:30:23;;;;;;;20.08;16.02;;;14.80;99.90;;;;;;5006472;28;20050;-72
2021/12/19 08:32:49;;;;;;;23.15;16.60;;;15.50;99.90;;;;;;5007724;28;20076;-72
2021/12/19 08:35:16;;;;;;;19.55;15.07;;;15.90;99.90;;;;;;5008398;28;20401;-72
2021/12/19 08:37:43;;;;;;;19.85;15.85;;;16.30;99.90;;;;;;5014325;28;20091;-71
2021/12/19 08:40:11;;;;;;;19.20;14.55;;;16.50;99.90;;;;;;5015828;28;20046;-71
2021/12/19 08:42:38;;;;;;;22.15;16.30;;;16.60;99.90;;;;;;5011525;28;20495;-71
2021/12/19 08:45:04;;;;;;;21.73;16.17;;;16.70;99.90;;;;;;5017429;28;20041;-71
2021/12/19 08:47:31;;;;;;;20.55;16.08;;;16.40;99.90;;;;;;4988761;28;20050;-71
2021/12/19 08:49:57;;;;;;;23.55;15.98;;;15.70;99.90;;;;;;4982056;28;20116;-71
2021/12/19 08:52:24;;;;;;;21.27;16.27;;;15.20;99.90;;;;;;4995487;28;20209;-71
2021/12/19 08:54:50;;;;;;;20.88;15.43;;;14.80;99.90;;;;;;4985928;28;20504;-71
2021/12/19 08:57:17;;;;;;;18.40;13.52;;;14.40;99.90;;;;;;4965005;28;20045;-71
2021/12/19 08:59:43;;;;;;;18.08;13.63;;;13.80;99.90;;;;;;4984082;28;20382;-71
2021/12/19 09:02:09;;;;;;;13.43;9.90;;;13.50;99.90;;;;;;4990315;28;20058;-71
2021/12/19 09:04:36;;;;;;;12.18;10.07;;;12.80;99.90;;;;;;4996499;28;20505;-70
2021/12/19 09:07:02;;;;;;;13.00;10.15;;;12.70;99.90;;;;;;4980638;28;20546;-70
2021/12/19 09:09:28;;;;;;;15.00;10.02;;;12.60;99.90;;;;;;4989833;28;20116;-72
2021/12/19 09:11:55;;;;;;;14.57;10.23;;;12.50;99.90;;;;;;5000518;28;20054;-70
2021/12/19 09:14:21;;;;;;;13.68;9.50;;;12.60;99.90;;;;;;4972036;28;20565;-71
2021/12/19 09:16:48;;;;;;;13.93;9.50;;;12.70;99.90;;;;;;5007838;28;20396;-71
2021/12/19 09:19:14;;;;;;;13.68;10.40;;;12.60;99.90;;;;;;5005369;28;20030;-70
2021/12/19 09:21:41;;;;;;;17.20;10.73;;;12.90;99.90;;;;;;4996429;28;20125;-71
2021/12/19 09:24:08;;;;;;;16.65;9.60;;;12.90;99.90;;;;;;4999310;28;20034;-70
2021/12/19 09:26:34;;;;;;;12.20;8.50;;;13.20;99.90;;;;;;4991811;28;20481;-71
2021/12/19 09:29:00;;;;;;;12.48;9.07;;;13.60;99.90;;;;;;4977210;28;20125;-69
2021/12/19 09:31:29;;;;;;;13.15;9.70;;;13.70;99.90;;;;;;4980623;28;20029;-70
2021/12/19 09:33:54;;;;;;;12.55;9.30;;;13.80;99.90;;;;;;4952989;28;20069;-70
2021/12/19 09:36:20;;;;;;;12.75;9.10;;;13.80;99.90;;;;;;4981822;28;20073;-71
2021/12/19 09:38:48;;;;;;;10.40;8.10;;;14.20;99.90;;;;;;4981492;28;20052;-71
2021/12/19 09:41:27;;;;;;;12.13;8.70;;;14.30;99.90;;;;;;4992708;28;20037;-71
2021/12/19 09:43:56;;;;;;;12.73;9.35;;;14.50;99.90;;;;;;4998743;28;20068;-70
2021/12/19 09:46:23;;;;;;;12.45;8.25;;;14.50;99.90;;;;;;5006545;28;20026;-71
2021/12/19 09:48:50;;;;;;;12.65;8.05;;;14.40;99.90;;;;;;5007878;28;20038;-71
2021/12/19 09:51:17;;;;;;;12.27;8.93;;;14.30;99.90;;;;;;5010562;28;20396;-71
2021/12/19 09:53:44;;;;;;;11.43;8.80;;;14.60;99.90;;;;;;5002729;28;20561;-70
2021/12/19 09:56:12;;;;;;;15.07;9.10;;;14.40;99.90;;;;;;5007514;28;20560;-71
2021/12/19 09:58:39;;;;;;;14.25;9.65;;;14.10;99.90;;;;;;5008606;28;20069;-71
2021/12/19 10:01:10;;;;;;;14.60;8.27;;;14.40;99.90;;;;;;5005044;28;20072;-70
2021/12/19 10:03:36;;;;;;;10.48;7.72;;;14.10;99.90;;;;;;5005975;28;20045;-71
2021/12/19 10:06:15;;;;;;;11.93;7.70;;;14.00;99.90;;;;;;5013345;28;20034;-71
2021/12/19 10:08:43;;;;;;;12.95;8.07;;;14.20;99.90;;;;;;5004123;28;20041;-71
2021/12/19 10:11:45;;;;;;;15.73;8.93;;;14.10;99.90;;;;;;5002609;28;20046;-71
2021/12/19 10:14:34;;;;;;;10.38;7.78;;;14.30;99.90;;;;;;4994827;28;20034;-71
2021/12/19 10:17:17;;;;;;;13.27;8.35;;;14.80;99.90;;;;;;5002820;28;20065;-70
2021/12/19 10:19:49;;;;;;;11.25;7.65;;;14.90;99.90;;;;;;5011015;28;20051;-71
2021/12/19 10:22:39;;;;;;;8.60;6.40;;;14.90;99.90;;;;;;5004185;28;20042;-71
2021/12/19 10:25:14;;;;;;;10.43;8.05;;;14.80;99.90;;;;;;4996645;28;20048;-71
2021/12/19 10:27:42;;;;;;;9.38;7.20;;;15.10;99.90;;;;;;5004799;28;20034;-71
2021/12/19 10:30:24;;;;;;;10.45;7.90;;;15.30;99.90;;;;;;5002671;28;20048;-71
2021/12/19 10:33:14;;;;;;;12.52;8.13;;;15.60;99.90;;;;;;4999461;28;20034;-71
2021/12/19 10:35:43;;;;;;;10.27;7.82;;;15.40;99.90;;;;;;4962139;28;20085;-71
2021/12/19 10:38:33;;;;;;;10.30;8.25;;;15.60;99.90;;;;;;4980310;28;20042;-71
2021/12/19 10:41:06;;;;;;;11.63;8.95;;;15.70;99.90;;;;;;4999256;28;20347;-71
2021/12/19 10:43:34;;;;;;;10.90;8.85;;;16.10;99.90;;;;;;5001312;28;20227;-71
2021/12/19 10:46:03;;;;;;;9.80;7.47;;;16.00;99.90;;;;;;5003196;28;20044;-73
2021/12/19 10:48:37;;;;;;;10.90;8.63;;;16.30;99.90;;;;;;4998147;28;20047;-71
2021/12/19 10:51:19;;;;;;;9.70;7.85;;;16.60;99.90;;;;;;5001262;28;20038;-71
2021/12/19 10:53:53;;;;;;;10.70;7.78;;;16.70;99.90;;;;;;5007026;28;20034;-71
2021/12/19 10:56:24;;;;;;;10.18;8.20;;;16.50;99.90;;;;;;5003290;28;20083;-71
2021/12/19 10:58:58;;;;;;;9.73;6.97;;;16.30;99.90;;;;;;5006697;28;20034;-72
2021/12/19 11:01:36;;;;;;;8.00;5.90;;;16.10;99.90;;;;;;5005067;28;20050;-71
2021/12/19 11:04:11;;;;;;;11.73;7.32;;;17.10;99.90;;;;;;5006451;28;20567;-71
2021/12/19 11:06:49;;;;;;;7.80;6.28;;;16.90;99.90;;;;;;4970913;28;20532;-71
2021/12/19 11:09:20;;;;;;;10.70;6.60;;;16.70;99.90;;;;;;4995740;28;20034;-71
2021/12/19 11:11:57;;;;;;;12.48;7.85;;;17.50;99.90;;;;;;5000461;28;20034;-72
2021/12/19 11:14:39;;;;;;;9.05;6.75;;;17.80;99.90;;;;;;5007070;28;20498;-72
2021/12/19 11:17:28;;;;;;;8.80;7.10;;;17.30;99.90;;;;;;4981433;28;20043;-71
2021/12/19 11:19:56;;;;;;;7.63;6.22;;;16.80;99.90;;;;;;4984671;28;20046;-71
2021/12/19 11:22:25;;;;;;;9.07;6.40;;;16.80;99.90;;;;;;4979805;28;20129;-71
2021/12/19 11:25:00;;;;;;;12.07;6.85;;;16.80;99.90;;;;;;4973995;28;20147;-72
2021/12/19 11:27:28;;;;;;;7.90;6.60;;;17.10;99.90;;;;;;5006717;28;20060;-72
2021/12/19 11:29:56;;;;;;;10.23;8.38;;;16.90;99.90;;;;;;4995448;28;20072;-71
2021/12/19 11:32:36;;;;;;;9.02;7.38;;;17.00;99.90;;;;;;4986281;28;20034;-72
2021/12/19 11:35:11;;;;;;;12.55;8.40;;;16.40;99.90;;;;;;5000022;28;20069;-70
2021/12/19 11:37:43;;;;;;;8.98;6.90;;;17.20;99.90;;;;;;4997093;28;20528;-71
2021/12/19 11:40:13;;;;;;;;;;;16.70;99.90;;;;;;5008744;28;20062;-70
2021/12/19 11:42:41;;;;;;;11.52;8.88;;;16.70;99.90;;;;;;5015930;28;19921;-70
2021/12/19 11:45:31;;;;;;;11.05;8.75;;;16.00;99.90;;;;;;4998173;28;20057;-71
2021/12/19 11:48:06;;;;;;;14.93;8.38;;;17.30;99.90;;;;;;5014841;28;20031;-71
2021/12/19 11:50:36;;;;;;;9.57;8.05;;;17.60;99.90;;;;;;5017498;28;20029;-71
2021/12/19 11:53:08;;;;;;;13.75;9.35;;;17.50;99.90;;;;;;5039166;28;20061;-70
2021/12/19 11:55:52;;;;;;;12.63;9.95;;;18.20;99.90;;;;;;5012561;28;20033;-72
2021/12/19 11:58:24;;;;;;;13.93;10.80;;;18.70;99.90;;;;;;5016980;28;20064;-72
2021/12/19 12:00:56;;;;;;;13.02;11.15;;;18.10;99.90;;;;;;4997352;28;20940;-71
2021/12/19 12:03:33;;;;;;;13.45;10.65;;;18.30;99.90;;;;;;4994220;28;20093;-72
2021/12/19 12:06:00;;;;;;;14.73;11.70;;;17.10;99.90;;;;;;5015939;28;20043;-71
2021/12/19 12:08:27;;;;;;;12.90;11.35;;;17.40;99.90;;;;;;5012196;28;20060;-71
2021/12/19 12:10:58;;;;;;;15.52;12.05;;;18.30;99.90;;;;;;4998212;28;20075;-72
2021/12/19 12:13:34;;;;;;;16.95;12.35;;;18.40;99.90;;;;;;5002400;28;20045;-71
2021/12/19 12:16:13;;;;;;;15.80;13.23;;;19.00;99.70;;;;;;5005987;28;20033;-71
2021/12/19 12:18:42;;;;;;;15.75;12.55;;;18.40;99.90;;;;;;5003222;28;20038;-72
2021/12/19 12:21:27;;;;;;;18.63;14.48;;;18.30;99.90;;;;;;5034895;27;20884;-72
2021/12/19 12:23:58;;;;;;;17.83;14.03;;;18.40;99.90;;;;;;5049178;28;20096;-71
2021/12/19 12:26:34;;;;;;;15.95;13.38;;;18.00;99.90;;;;;;5014641;28;20536;-71
2021/12/19 12:29:01;;;;;;;17.08;13.55;;;17.20;99.90;;;;;;5047009;28;20092;-70
2021/12/19 12:31:27;;;;;;;16.35;13.30;;;17.90;99.90;;;;;;5028644;28;20037;-72
2021/12/19 12:33:55;;;;;;;20.48;15.70;;;17.20;99.90;;;;;;5046025;28;20398;-71
2021/12/19 12:36:22;;;;;;;19.38;15.18;;;18.20;99.90;;;;;;5025273;28;20386;-72
2021/12/19 12:38:51;;;;;;;17.67;14.63;;;17.70;99.90;;;;;;5048487;28;20392;-72
2021/12/19 12:41:29;;;;;;;19.20;15.10;;;18.00;99.90;;;;;;5044358;28;20042;-72
2021/12/19 12:44:02;;;;;;;17.73;14.57;;;17.80;99.90;;;;;;5043787;28;20065;-71
2021/12/19 12:46:29;;;;;;;19.20;14.65;;;17.60;99.90;;;;;;4994375;28;20060;-72
2021/12/19 12:49:06;;;;;;;16.75;13.75;;;17.80;99.90;;;;;;4990670;28;20034;-72
2021/12/19 12:51:39;;;;;;;18.52;14.00;;;18.00;99.90;;;;;;4995731;28;20452;-71
2021/12/19 12:54:09;;;;;;;16.77;14.45;;;16.50;99.90;;;;;;4997468;28;20451;-71
2021/12/19 12:56:43;;;;;;;17.58;14.13;;;17.60;99.90;;;;;;4992657;28;20039;-70
2021/12/19 12:59:11;;;;;;;18.88;15.85;;;18.00;99.90;;;;;;4990232;28;20049;-71
2021/12/19 13:01:42;;;;;;;19.77;14.93;;;17.70;99.90;;;;;;4990386;28;20084;-72
2021/12/19 13:04:13;;;;;;;18.92;14.88;;;18.60;99.90;;;;;;5015289;28;20030;-72
2021/12/19 13:06:38;;;;;;;18.60;15.15;;;19.20;99.90;;;;;;5006555;28;20048;-70
2021/12/19 13:09:20;;;;;;;17.73;15.32;;;18.80;99.90;;;;;;5018070;28;20042;-71
2021/12/19 13:11:51;;;;;;;20.52;16.60;;;18.40;99.90;;;;;;4983895;28;20168;-72
2021/12/19 13:14:26;;;;;;;17.27;15.23;;;17.70;99.90;;;;;;4991628;28;20038;-72
2021/12/19 13:16:59;;;;;;;20.15;16.55;;;18.90;99.90;;;;;;4995333;28;20524;-72
2021/12/19 13:19:39;;;;;;;21.10;14.32;;;17.80;99.90;;;;;;5009852;28;20037;-71
2021/12/19 13:22:14;;;;;;;17.98;15.00;;;18.00;99.90;;;;;;5010896;28;20120;-73
2021/12/19 13:24:42;;;;;;;20.40;14.82;;;17.50;99.90;;;;;;5009299;28;20463;-72
2021/12/19 13:27:28;;;;;;;18.85;15.07;;;18.10;99.90;;;;;;5013581;28;20536;-72
2021/12/19 13:30:19;;;;;;;16.73;13.75;;;18.40;99.90;;;;;;5013207;28;20038;-72
2021/12/19 13:32:53;;;;;;;17.48;14.38;;;18.50;99.90;;;;;;5018099;28;20058;-71
2021/12/19 13:35:26;;;;;;;15.52;12.50;;;19.10;99.90;;;;;;5018563;28;20113;-71
2021/12/19 13:37:56;;;;;;;16.30;13.10;;;18.10;99.90;;;;;;4997342;28;20088;-71
2021/12/19 13:40:34;;;;;;;14.10;11.38;;;18.00;99.90;;;;;;5001273;28;20069;-72
2021/12/19 13:43:06;;;;;;;13.95;12.27;;;18.80;99.90;;;;;;5002635;28;20038;-72
2021/12/19 13:45:52;;;;;;;;;;;19.00;99.90;;;;;;4987252;28;20038;-72
2021/12/19 13:48:37;;;;;;;12.10;10.80;;;19.00;99.90;;;;;;5011062;28;19917;-71
2021/12/19 13:51:07;;;;;;;14.65;11.95;;;17.90;99.90;;;;;;4980302;28;20116;-70
2021/12/19 13:53:36;;;;;;;13.73;10.80;;;18.10;99.90;;;;;;4977971;28;20553;-71
2021/12/19 13:56:08;;;;;;;13.85;10.75;;;17.40;99.90;;;;;;4983303;28;20042;-71